Time;durP1;ratioP1;P1;durP2;ratioP2;P2;SDS_P1;SDS_P2;PMS_P1;PMS_P2;Temp;Humidity;BMP_temperature;BMP_pressure;BME280_temperature;BME280_humidity;BME280_pressure;Samples;Min_cycle;Max_cycle;Signal;HPM_P1;HPM_P2
2021/05/12 00:05:00;;;;;;;2.83;2.27;;;;;;;12.47;100.00;98403.13;10499502;28;20198;-74
2021/05/12 00:10:21;;;;;;;7.43;3.90;;;;;;;12.65;100.00;98412.56;10501505;28;20183;-75
2021/05/12 00:15:40;;;;;;;4.07;3.70;;;;;;;12.65;100.00;98403.47;10501297;28;20171;-75
2021/05/12 00:21:00;;;;;;;3.53;3.00;;;;;;;12.63;100.00;98414.97;10499075;28;20262;-75
2021/05/12 00:26:19;;;;;;;6.73;3.00;;;;;;;12.51;100.00;98401.06;10499322;28;20230;-75
2021/05/12 00:31:38;;;;;;;10.03;4.17;;;;;;;12.62;100.00;98402.38;10498506;28;20179;-75
2021/05/12 00:36:57;;;;;;;5.83;3.70;;;;;;;12.72;100.00;98401.34;10500325;28;20578;-75
2021/05/12 00:42:17;;;;;;;6.00;2.97;;;;;;;12.73;100.00;98400.91;10500302;28;20567;-74
2021/05/12 00:47:35;;;;;;;4.10;3.70;;;;;;;12.63;100.00;98395.63;10498214;28;20260;-74
2021/05/12 00:52:54;;;;;;;4.70;3.90;;;;;;;12.64;100.00;98391.69;10498811;28;20183;-75
2021/05/12 00:58:14;;;;;;;5.03;3.00;;;;;;;12.49;100.00;98395.97;10499583;28;20175;-74
2021/05/12 01:03:33;;;;;;;4.77;3.37;;;;;;;12.47;100.00;98389.34;10498128;28;20183;-74
2021/05/12 01:08:52;;;;;;;4.70;3.50;;;;;;;12.48;100.00;98383.38;10498493;28;20301;-75
2021/05/12 01:14:11;;;;;;;3.70;3.30;;;;;;;12.64;100.00;98390.91;10497997;28;20207;-74
2021/05/12 01:19:30;;;;;;;4.67;3.47;;;;;;;12.62;100.00;98394.09;10496270;28;20553;-75
2021/05/12 01:24:49;;;;;;;5.30;3.33;;;;;;;12.65;100.00;98384.97;10497527;28;20194;-75
2021/05/12 01:30:08;;;;;;;6.90;3.30;;;;;;;12.60;100.00;98387.44;10496756;28;20218;-75
2021/05/12 01:35:28;;;;;;;5.40;4.27;;;;;;;12.54;100.00;98400.19;10496898;28;20621;-76
2021/05/12 01:40:47;;;;;;;5.67;3.10;;;;;;;12.54;100.00;98400.97;10498052;28;20178;-75
2021/05/12 01:46:06;;;;;;;5.43;3.23;;;;;;;12.45;100.00;98400.78;10496614;28;20214;-75
2021/05/12 01:51:25;;;;;;;5.93;3.17;;;;;;;12.46;100.00;98412.59;10497870;28;20174;-74
2021/05/12 01:56:44;;;;;;;2.90;2.30;;;;;;;12.55;100.00;98413.56;10496642;28;20171;-75
2021/05/12 02:02:03;;;;;;;5.10;3.83;;;;;;;12.51;100.00;98409.31;10496269;28;20625;-75
2021/05/12 02:07:21;;;;;;;6.00;4.07;;;;;;;12.49;100.00;98412.53;10495946;28;20243;-75
2021/05/12 02:12:42;;;;;;;8.10;4.20;;;;;;;12.47;100.00;98414.94;10497404;28;20200;-76
2021/05/12 02:18:01;;;;;;;5.37;3.40;;;;;;;12.44;100.00;98415.75;10495869;28;20191;-76
2021/05/12 02:23:22;;;;;;;4.27;3.30;;;;;;;12.44;100.00;98420.53;10496163;28;20636;-75
2021/05/12 02:28:41;;;;;;;6.03;4.07;;;;;;;12.44;100.00;98420.53;10496477;28;20688;-75
2021/05/12 02:34:00;;;;;;;8.70;4.30;;;;;;;12.42;100.00;98417.41;10495754;28;20182;-75
2021/05/12 02:39:19;;;;;;;11.07;5.13;;;;;;;12.44;100.00;98406.72;10495935;28;20179;-75
2021/05/12 02:44:38;;;;;;;5.77;4.23;;;;;;;12.40;100.00;98404.06;10501830;28;20174;-75
2021/05/12 02:49:57;;;;;;;5.17;4.10;;;;;;;12.45;100.00;98394.50;10503449;28;20166;-76
2021/05/12 02:55:17;;;;;;;7.90;4.90;;;;;;;12.34;100.00;98404.97;10503386;28;20547;-75
2021/05/12 03:00:38;;;;;;;7.03;4.53;;;;;;;12.43;100.00;98402.41;10503204;28;20179;-75
2021/05/12 03:05:57;;;;;;;6.90;5.40;;;;;;;12.37;100.00;98399.38;10502758;28;20621;-75
2021/05/12 03:11:16;;;;;;;9.50;5.20;;;;;;;12.39;100.00;98401.72;10503784;28;20576;-74
2021/05/12 03:16:36;;;;;;;6.27;5.17;;;;;;;12.35;100.00;98417.56;10502412;28;20206;-74
2021/05/12 03:21:57;;;;;;;7.43;5.60;;;;;;;12.34;100.00;98422.31;10503318;28;20665;-74
2021/05/12 03:27:16;;;;;;;14.27;6.97;;;;;;;12.24;100.00;98426.06;10501900;28;20226;-75
2021/05/12 03:32:35;;;;;;;7.97;5.50;;;;;;;12.22;100.00;98430.47;10501593;28;20231;-76
2021/05/12 03:37:56;;;;;;;13.63;6.67;;;;;;;12.17;100.00;98440.00;10502841;28;20171;-76
2021/05/12 03:43:16;;;;;;;9.63;5.13;;;;;;;12.22;100.00;98436.72;10502597;28;20175;-75
2021/05/12 03:48:35;;;;;;;10.40;5.90;;;;;;;12.21;100.00;98446.22;10500665;28;20214;-75
2021/05/12 03:53:54;;;;;;;9.40;6.17;;;;;;;12.16;100.00;98455.00;10500092;28;20541;-76
2021/05/12 03:59:13;;;;;;;9.70;5.10;;;;;;;12.14;100.00;98454.63;10502148;28;20257;-75
2021/05/12 04:04:32;;;;;;;9.07;6.00;;;;;;;12.12;100.00;98448.75;10500615;28;20198;-76
2021/05/12 04:09:51;;;;;;;4.23;3.83;;;;;;;12.09;100.00;98460.66;10500531;28;20708;-76
2021/05/12 04:15:11;;;;;;;12.80;5.27;;;;;;;12.04;100.00;98463.88;10500457;28;20230;-74
2021/05/12 04:20:29;;;;;;;6.47;5.90;;;;;;;12.00;100.00;98462.38;10498817;28;20645;-76
2021/05/12 04:25:49;;;;;;;10.50;7.20;;;;;;;12.00;100.00;98463.19;10500540;28;20206;-76
2021/05/12 04:31:08;;;;;;;6.77;5.43;;;;;;;12.01;100.00;98472.22;10498307;28;20632;-75
2021/05/12 04:36:27;;;;;;;5.00;4.40;;;;;;;11.97;100.00;98468.78;10499535;28;20174;-76
2021/05/12 04:41:46;;;;;;;9.60;4.90;;;;;;;11.92;100.00;98471.22;10499180;28;20555;-76
2021/05/12 04:47:05;;;;;;;6.33;5.07;;;;;;;11.88;100.00;98468.53;10497506;28;20210;-75
2021/05/12 04:52:24;;;;;;;6.17;5.60;;;;;;;11.93;100.00;98471.59;10500040;28;20178;-75
2021/05/12 04:57:43;;;;;;;10.00;6.30;;;;;;;12.07;100.00;98492.59;10498577;28;20174;-75
2021/05/12 05:03:03;;;;;;;8.27;5.67;;;;;;;11.99;100.00;98491.19;10497332;28;20182;-75
2021/05/12 05:08:22;;;;;;;12.20;6.57;;;;;;;12.08;100.00;98494.13;10483472;28;20210;-75
2021/05/12 05:13:41;;;;;;;13.00;5.87;;;;;;;12.17;100.00;98499.88;10498053;28;20179;-75
2021/05/12 05:19:00;;;;;;;10.70;5.87;;;;;;;12.14;100.00;98517.28;10490712;28;20175;-75
2021/05/12 05:24:19;;;;;;;11.37;5.87;;;;;;;12.19;100.00;98512.06;10463430;28;20191;-75
2021/05/12 05:29:38;;;;;;;8.53;5.73;;;;;;;12.13;100.00;98501.94;10456483;28;20569;-75
2021/05/12 05:34:57;;;;;;;3.67;3.37;;;;;;;12.13;100.00;98504.69;10484389;28;20186;-76
2021/05/12 05:40:16;;;;;;;9.23;6.30;;;;;;;12.26;100.00;98513.88;10498207;28;20613;-75
2021/05/12 05:45:36;;;;;;;12.77;7.97;;;;;;;12.14;100.00;98511.75;10497983;28;20206;-76
2021/05/12 05:50:55;;;;;;;8.67;7.77;;;;;;;12.24;100.00;98517.06;10496495;28;20212;-75
2021/05/12 05:56:14;;;;;;;13.73;8.47;;;;;;;12.37;100.00;98517.97;10459556;28;20183;-76
2021/05/12 06:01:33;;;;;;;16.33;7.23;;;;;;;12.38;100.00;98522.31;10454866;28;20175;-75
2021/05/12 06:06:54;;;;;;;9.90;7.27;;;;;;;12.37;100.00;98537.28;10454598;28;20238;-74
2021/05/12 06:12:14;;;;;;;18.07;8.77;;;;;;;12.45;100.00;98533.19;10455950;28;20175;-74
2021/05/12 06:17:34;;;;;;;16.50;8.70;;;;;;;12.61;100.00;98541.53;10456304;28;20203;-75
2021/05/12 06:23:00;;;;;;;6.47;5.73;;;;;;;12.56;100.00;98547.56;10464405;28;20557;-74
2021/05/12 06:28:20;;;;;;;11.93;8.10;;;;;;;12.51;100.00;98537.03;10462468;28;20223;-75
2021/05/12 06:33:42;;;;;;;17.23;7.80;;;;;;;12.48;100.00;98548.91;10472100;28;20187;-74
2021/05/12 06:39:01;;;;;;;11.70;7.33;;;;;;;12.57;100.00;98542.81;10495110;28;20187;-73
2021/05/12 06:44:22;;;;;;;11.73;9.17;;;;;;;12.64;100.00;98546.22;10483956;28;20199;-74
2021/05/12 06:49:42;;;;;;;10.37;6.60;;;;;;;12.63;100.00;98550.16;10461982;28;20171;-74
2021/05/12 06:55:01;;;;;;;9.27;5.77;;;;;;;12.72;100.00;98553.13;10489419;28;20190;-74
2021/05/12 07:00:21;;;;;;;8.87;6.37;;;;;;;12.78;100.00;98549.47;10504261;28;20212;-75
2021/05/12 07:05:39;;;;;;;8.53;5.73;;;;;;;12.87;100.00;98548.88;10468015;28;20571;-74
2021/05/12 07:10:58;;;;;;;11.77;7.30;;;;;;;12.92;100.00;98546.41;10461543;28;20179;-74
2021/05/12 07:16:17;;;;;;;16.00;8.10;;;;;;;13.08;100.00;98546.47;10459911;28;20661;-75
2021/05/12 07:21:36;;;;;;;9.77;6.50;;;;;;;13.15;100.00;98549.06;10462140;28;20543;-74
2021/05/12 07:26:55;;;;;;;11.03;7.53;;;;;;;13.10;100.00;98557.84;10471537;28;20234;-75
2021/05/12 07:32:14;;;;;;;10.30;8.33;;;;;;;13.14;100.00;98553.03;10458600;28;20191;-75
2021/05/12 07:37:33;;;;;;;13.70;7.20;;;;;;;13.13;100.00;98547.94;10461238;28;20567;-75
2021/05/12 07:42:54;;;;;;;9.20;6.30;;;;;;;13.11;100.00;98561.38;10461308;28;20179;-75
2021/05/12 07:48:14;;;;;;;14.77;8.13;;;;;;;13.05;100.00;98563.09;10459616;28;20203;-75
2021/05/12 07:53:33;;;;;;;14.97;7.27;;;;;;;13.10;100.00;98568.13;10460813;28;20196;-75
2021/05/12 07:58:52;;;;;;;13.00;7.70;;;;;;;13.14;100.00;98566.06;10460492;28;20625;-74
2021/05/12 08:04:11;;;;;;;19.43;8.47;;;;;;;13.19;100.00;98560.81;10483215;28;20223;-75
2021/05/12 08:09:31;;;;;;;15.80;9.03;;;;;;;13.20;100.00;98561.59;10459664;28;20206;-75
2021/05/12 08:14:50;;;;;;;15.17;8.70;;;;;;;13.21;100.00;98568.66;10460147;28;20720;-76
2021/05/12 08:20:09;;;;;;;12.27;7.77;;;;;;;13.37;100.00;98550.13;10458700;28;20572;-76
2021/05/12 08:25:28;;;;;;;14.63;8.63;;;;;;;13.47;100.00;98553.84;10458739;28;20191;-75
2021/05/12 08:30:47;;;;;;;16.47;7.80;;;;;;;13.41;100.00;98555.59;10459484;28;20669;-76
2021/05/12 08:36:06;;;;;;;12.60;7.63;;;;;;;13.52;100.00;98547.81;10462036;28;20171;-75
2021/05/12 08:41:25;;;;;;;15.47;8.60;;;;;;;13.55;100.00;98550.47;10458188;28;20184;-74
2021/05/12 08:46:45;;;;;;;25.17;12.13;;;;;;;13.74;100.00;98555.16;10457356;28;20207;-75
2021/05/12 08:52:11;;;;;;;17.27;10.20;;;;;;;13.67;100.00;98547.03;10458475;28;20530;-75
2021/05/12 08:57:30;;;;;;;10.70;7.63;;;;;;;13.76;100.00;98556.28;10458410;28;20194;-74
2021/05/12 09:02:50;;;;;;;19.10;7.73;;;;;;;13.73;100.00;98551.59;10456037;28;20172;-74
2021/05/12 09:08:09;;;;;;;12.60;7.63;;;;;;;13.73;100.00;98557.13;10456576;28;20203;-75
2021/05/12 09:13:38;;;;;;;19.33;9.47;;;;;;;13.73;100.00;98554.38;10459386;28;20285;-75
2021/05/12 09:19:05;;;;;;;20.97;12.40;;;;;;;13.52;100.00;98556.88;10467613;28;20645;-75
2021/05/12 09:24:30;;;;;;;13.17;8.60;;;;;;;13.63;100.00;98541.59;10456340;28;20571;-75
2021/05/12 09:30:07;;;;;;;27.87;9.17;;;;;;;13.72;100.00;98544.53;10455415;28;20219;-74
2021/05/12 09:35:26;;;;;;;14.77;8.00;;;;;;;13.91;100.00;98557.47;10454482;28;20183;-75
2021/05/12 09:40:59;;;;;;;13.73;9.43;;;;;;;14.08;100.00;98549.94;10479088;28;20182;-74
2021/05/12 09:46:24;;;;;;;18.70;10.47;;;;;;;14.04;100.00;98549.25;10496380;28;20198;-74
2021/05/12 09:51:46;;;;;;;23.43;9.27;;;;;;;14.06;100.00;98549.59;10496978;28;20592;-75
2021/05/12 09:57:05;;;;;;;20.83;11.00;;;;;;;14.19;100.00;98545.72;10497985;28;20166;-74
2021/05/12 10:02:24;;;;;;;13.03;8.57;;;;;;;14.01;100.00;98542.59;10495274;28;20191;-74
2021/05/12 10:07:50;;;;;;;16.97;9.70;;;;;;;14.16;100.00;98540.28;10479444;28;20215;-74
2021/05/12 10:13:09;;;;;;;20.47;7.60;;;;;;;14.18;100.00;98549.69;10454481;28;20665;-74
2021/05/12 10:18:30;;;;;;;17.30;8.30;;;;;;;14.16;100.00;98543.81;10467545;28;20163;-74
2021/05/12 10:23:50;;;;;;;13.27;7.80;;;;;;;14.25;100.00;98541.19;10454593;28;20187;-75
2021/05/12 10:29:11;;;;;;;20.07;9.70;;;;;;;14.19;100.00;98540.19;10455030;28;20239;-75
2021/05/12 10:34:39;;;;;;;13.10;10.60;;;;;;;14.20;100.00;98544.50;10454404;28;20176;-74
2021/05/12 10:40:02;;;;;;;10.97;7.77;;;;;;;14.46;100.00;98546.13;10459048;28;20187;-74
2021/05/12 10:45:38;;;;;;;9.90;6.57;;;;;;;14.82;100.00;98544.69;10457838;28;20187;-74
2021/05/12 10:50:59;;;;;;;17.57;7.40;;;;;;;14.67;100.00;98548.31;10453403;28;20630;-74
2021/05/12 10:56:20;;;;;;;10.27;7.40;;;;;;;15.04;100.00;98542.06;10454235;28;20528;-74
2021/05/12 11:01:42;;;;;;;11.33;7.33;;;;;;;14.99;100.00;98542.63;10452643;28;20217;-75
2021/05/12 11:07:02;;;;;;;21.50;9.17;;;;;;;14.69;100.00;98538.34;10462380;28;20203;-75
2021/05/12 11:12:32;;;;;;;10.90;6.27;;;;;;;14.46;100.00;98544.16;10462626;28;20560;-75
2021/05/12 11:17:52;;;;;;;9.10;6.87;;;;;;;14.40;100.00;98534.84;10471949;28;20187;-75
2021/05/12 11:23:15;;;;;;;13.83;8.80;;;;;;;14.35;100.00;98537.38;10462260;28;20167;-74
2021/05/12 11:29:04;;;;;;;16.23;8.10;;;;;;;14.48;100.00;98529.88;10460140;28;20223;-75
2021/05/12 11:34:23;;;;;;;15.17;7.03;;;;;;;14.35;100.00;98529.81;10460486;28;20175;-75
2021/05/12 11:39:46;;;;;;;11.53;6.77;;;;;;;14.48;100.00;98527.09;10461507;28;20183;-74
2021/05/12 11:45:19;;;;;;;15.23;7.40;;;;;;;14.52;100.00;98525.78;10461332;28;20187;-75
2021/05/12 11:50:39;;;;;;;17.00;6.67;;;;;;;14.73;100.00;98518.88;10471461;28;20191;-75
2021/05/12 11:55:58;;;;;;;9.87;7.33;;;;;;;14.53;100.00;98519.03;10472727;28;20195;-75
2021/05/12 12:01:18;;;;;;;12.57;6.97;;;;;;;14.48;100.00;98518.81;10499214;28;20692;-75
2021/05/12 12:06:45;;;;;;;9.77;7.00;;;;;;;14.63;100.00;98515.19;10501636;28;20289;-74
2021/05/12 12:12:04;;;;;;;10.83;8.00;;;;;;;14.89;100.00;98504.94;10501546;28;20191;-74
2021/05/12 12:17:23;;;;;;;10.43;6.93;;;;;;;14.83;100.00;98501.94;10498128;28;20167;-74
2021/05/12 12:22:49;;;;;;;12.13;7.40;;;;;;;15.04;100.00;98500.50;10499785;28;20163;-74
2021/05/12 12:28:08;;;;;;;8.63;6.93;;;;;;;15.23;100.00;98505.84;10500325;28;20230;-74
2021/05/12 12:33:27;;;;;;;20.93;7.27;;;;;;;15.14;100.00;98505.75;10498383;28;20254;-74
2021/05/12 12:38:51;;;;;;;10.77;6.30;;;;;;;15.18;100.00;98507.16;10499568;28;20625;-74
2021/05/12 12:44:10;;;;;;;8.33;6.20;;;;;;;15.27;100.00;98510.06;10500523;28;20195;-74
2021/05/12 12:49:46;;;;;;;9.80;6.00;;;;;;;15.55;100.00;98503.63;10498133;28;20234;-74
2021/05/12 12:55:20;;;;;;;13.67;6.10;;;;;;;15.70;100.00;98503.97;10499049;28;20531;-74
2021/05/12 13:00:45;;;;;;;4.13;3.80;;;;;;;15.41;100.00;98504.09;10499722;28;20178;-73
2021/05/12 13:06:06;;;;;;;8.40;5.40;;;;;;;15.16;100.00;98509.63;10498176;28;20206;-74
2021/05/12 13:11:25;;;;;;;8.80;4.87;;;;;;;14.78;100.00;98523.88;10499176;28;20269;-74
2021/05/12 13:16:45;;;;;;;6.50;4.80;;;;;;;14.06;100.00;98525.47;10497816;28;20265;-74
2021/05/12 13:22:08;;;;;;;5.20;4.50;;;;;;;13.99;100.00;98531.19;10498890;28;20636;-75
2021/05/12 13:27:27;;;;;;;7.47;5.23;;;;;;;13.60;100.00;98536.16;10496829;28;20249;-74
2021/05/12 13:32:48;;;;;;;4.20;2.77;;;;;;;13.25;100.00;98544.50;10497400;28;20186;-74
2021/05/12 13:38:06;;;;;;;3.83;2.40;;;;;;;13.24;100.00;98535.44;10497298;28;20216;-74
2021/05/12 13:43:25;;;;;;;3.47;2.30;;;;;;;13.36;100.00;98542.25;10498132;28;20183;-74
2021/05/12 13:48:44;;;;;;;3.60;2.00;;;;;;;13.37;100.00;98533.53;10496275;28;20198;-75
2021/05/12 13:54:14;;;;;;;2.97;2.77;;;;;;;13.44;100.00;98535.38;10497814;28;20167;-75
2021/05/12 14:04:52;;;;;;;6.57;3.40;;;;;;;13.74;100.00;98536.56;10495758;28;20537;-75
2021/05/12 14:10:14;;;;;;;6.67;2.70;;;;;;;13.77;100.00;98532.19;10497717;28;20182;-75
2021/05/12 14:21:05;;;;;;;2.77;2.37;;;;;;;13.89;100.00;98532.22;10496834;28;20186;-75
2021/05/12 14:26:24;;;;;;;6.00;3.53;;;;;;;13.94;100.00;98533.69;10496971;28;20227;-75
2021/05/12 14:31:43;;;;;;;6.33;4.13;;;;;;;13.84;100.00;98535.53;10494927;28;20219;-76
2021/05/12 14:37:04;;;;;;;8.57;4.57;;;;;;;13.84;100.00;98534.75;10497332;28;20254;-75
2021/05/12 14:42:23;;;;;;;5.90;4.80;;;;;;;13.83;100.00;98547.78;10505347;28;20175;-76
2021/05/12 14:47:42;;;;;;;4.17;2.77;;;;;;;13.76;100.00;98542.44;10503388;28;20285;-76
2021/05/12 14:53:12;;;;;;;4.23;3.83;;;;;;;13.86;100.00;98546.94;10504761;28;20178;-75
2021/05/12 15:09:47;;;;;;;11.90;5.47;;;;;;;14.07;100.00;98543.63;10503416;28;20688;-75
2021/05/12 15:15:07;;;;;;;5.93;4.87;;;;;;;13.94;100.00;98531.72;10503855;28;20186;-76
2021/05/12 15:20:26;;;;;;;5.83;5.33;;;;;;;13.71;100.00;98531.13;10502455;28;20186;-75
2021/05/12 15:25:45;;;;;;;4.87;4.03;;;;;;;13.79;100.00;98527.78;10503069;28;20199;-76
2021/05/12 15:31:05;;;;;;;4.43;3.67;;;;;;;13.78;100.00;98519.88;10502034;28;20202;-76
2021/05/12 15:36:24;;;;;;;3.63;3.33;;;;;;;14.00;100.00;98520.91;10502215;28;20532;-75
2021/05/12 15:41:43;;;;;;;3.80;3.50;;;;;;;14.12;100.00;98523.78;10502078;28;20179;-75
2021/05/12 15:47:01;;;;;;;7.30;3.70;;;;;;;14.15;100.00;98525.66;10501226;28;20202;-75
2021/05/12 15:52:21;;;;;;;7.70;3.60;;;;;;;14.19;100.00;98522.78;10502494;28;20625;-75
2021/05/12 15:57:40;;;;;;;4.63;3.40;;;;;;;14.23;100.00;98521.47;10502319;28;20178;-75
2021/05/12 16:03:00;;;;;;;6.53;4.10;;;;;;;14.34;100.00;98531.03;10499843;28;20649;-75
2021/05/12 16:08:20;;;;;;;9.83;4.97;;;;;;;14.51;100.00;98527.00;10501577;28;20198;-75
2021/05/12 16:13:39;;;;;;;8.40;4.37;;;;;;;14.40;100.00;98529.31;10501613;28;20274;-75
2021/05/12 16:18:59;;;;;;;5.73;3.47;;;;;;;14.39;100.00;98538.03;10499283;28;20570;-75
2021/05/12 16:24:18;;;;;;;3.97;3.40;;;;;;;14.46;100.00;98541.38;10501306;28;20645;-76
2021/05/12 16:29:37;;;;;;;4.37;3.20;;;;;;;14.46;100.00;98543.38;10500326;28;20226;-77
2021/05/12 16:35:00;;;;;;;3.97;3.60;;;;;;;14.35;100.00;98548.44;10498496;28;20186;-76
2021/05/12 16:40:19;;;;;;;7.87;5.17;;;;;;;14.14;100.00;98551.75;10500708;28;20170;-76
2021/05/12 16:45:38;;;;;;;9.37;3.77;;;;;;;13.94;100.00;98544.75;10500141;28;20674;-75
2021/05/12 16:50:59;;;;;;;6.47;3.00;;;;;;;13.76;100.00;98527.88;10498985;28;20174;-76
2021/05/12 16:56:19;;;;;;;5.77;3.67;;;;;;;13.70;100.00;98530.38;10499993;28;20525;-76
2021/05/12 17:01:37;;;;;;;6.97;4.53;;;;;;;13.72;100.00;98535.44;10497955;28;20178;-75
2021/05/12 17:06:56;;;;;;;4.90;3.60;;;;;;;13.84;100.00;98535.53;10499214;28;20202;-75
2021/05/12 17:12:22;;;;;;;9.27;3.50;;;;;;;13.86;100.00;98532.31;10498171;28;20235;-76
2021/05/12 17:17:41;;;;;;;6.50;3.40;;;;;;;13.73;100.00;98523.19;10497843;28;20634;-76
2021/05/12 17:23:01;;;;;;;4.10;3.77;;;;;;;13.71;100.00;98526.41;10498816;28;20174;-75
2021/05/12 17:28:23;;;;;;;5.97;3.93;;;;;;;13.72;100.00;98522.44;10498150;28;20234;-76
2021/05/12 17:33:42;;;;;;;4.20;3.80;;;;;;;13.74;100.00;98524.75;10497299;28;20183;-76
2021/05/12 17:39:04;;;;;;;3.73;3.23;;;;;;;13.80;100.00;98525.78;10498508;28;20178;-76
2021/05/12 17:44:24;;;;;;;5.47;4.30;;;;;;;13.80;100.00;98531.28;10498323;28;20171;-76
2021/05/12 17:49:43;;;;;;;12.10;6.70;;;;;;;13.86;100.00;98535.88;10495039;28;20202;-75
2021/05/12 17:55:03;;;;;;;4.10;3.70;;;;;;;13.59;100.00;98543.66;10497893;28;20167;-75
2021/05/12 18:00:22;;;;;;;4.30;3.30;;;;;;;13.50;100.00;98541.94;10496780;28;20183;-76
2021/05/12 18:05:48;;;;;;;12.60;8.77;;;;;;;13.40;100.00;98549.25;10495420;28;20198;-75
2021/05/12 18:11:18;;;;;;;3.70;3.43;;;;;;;13.40;100.00;98551.25;10497134;28;20202;-75
2021/05/12 18:22:16;;;;;;;4.60;4.13;;;;;;;13.16;100.00;98553.38;10496848;28;20175;-76
2021/05/12 18:27:35;;;;;;;4.50;3.50;;;;;;;12.96;100.00;98560.16;10496840;28;20456;-76
2021/05/12 18:32:55;;;;;;;4.50;3.57;;;;;;;12.93;100.00;98547.97;10494905;28;20633;-76
2021/05/12 18:38:21;;;;;;;8.20;4.10;;;;;;;12.88;100.00;98550.47;10497004;28;20537;-76
2021/05/12 18:43:40;;;;;;;4.33;3.93;;;;;;;12.83;100.00;98543.44;10496989;28;20535;-76
2021/05/12 18:48:58;;;;;;;4.30;3.90;;;;;;;12.79;100.00;98542.75;10495092;28;20238;-76
2021/05/12 18:54:18;;;;;;;3.77;3.37;;;;;;;12.76;100.00;98546.34;10496901;28;20171;-75
2021/05/12 18:59:37;;;;;;;12.00;6.97;;;;;;;12.90;100.00;98550.81;10495668;28;20191;-75
2021/05/12 19:04:56;;;;;;;6.97;4.10;;;;;;;12.80;100.00;98554.53;10495069;28;20183;-76
2021/05/12 19:15:53;;;;;;;4.73;3.50;;;;;;;12.66;100.00;98568.66;10495671;28;20178;-75
2021/05/12 19:26:46;;;;;;;6.70;4.43;;;;;;;12.55;100.00;98575.56;10500461;28;20230;-75
2021/05/12 19:43:12;;;;;;;5.50;3.77;;;;;;;12.18;100.00;98573.13;10502210;28;20179;-75
2021/05/12 19:48:31;;;;;;;8.90;5.07;;;;;;;12.11;100.00;98579.56;10499999;28;20216;-74
2021/05/12 19:53:52;;;;;;;6.20;4.63;;;;;;;11.74;100.00;98576.28;10502582;28;20650;-74
2021/05/12 19:59:11;;;;;;;4.73;3.67;;;;;;;11.52;100.00;98575.03;10502146;28;20180;-74
2021/05/12 20:04:36;;;;;;;9.30;6.40;;;;;;;11.40;100.00;98572.84;10500759;28;20171;-73
2021/05/12 20:15:14;;;;;;;3.47;2.70;;;;;;;11.19;100.00;98575.13;10501100;28;20170;-74
2021/05/12 20:20:33;;;;;;;10.90;6.73;;;;;;;11.01;100.00;98560.84;10500076;28;20167;-75
2021/05/12 20:25:53;;;;;;;6.63;3.60;;;;;;;11.21;100.00;98557.00;10499729;28;20202;-74
2021/05/12 20:31:12;;;;;;;3.87;3.57;;;;;;;11.11;100.00;98554.41;10498644;28;20265;-75
2021/05/12 20:37:14;;;;;;;5.00;4.37;;;;;;;11.05;100.00;98560.78;10498552;28;20222;-74
2021/05/12 20:42:13;;;;;;;4.10;3.07;;;;;;;10.88;100.00;98556.31;10499781;28;20190;-75
2021/05/12 20:47:32;;;;;;;7.83;3.40;;;;;;;10.75;100.00;98556.06;10498607;28;20657;-75
2021/05/12 20:52:51;;;;;;;4.47;3.77;;;;;;;10.62;100.00;98546.81;10499167;28;20640;-75
2021/05/12 20:58:13;;;;;;;4.27;3.87;;;;;;;10.65;100.00;98546.00;10499619;28;20175;-76
2021/05/12 21:03:32;;;;;;;7.60;3.20;;;;;;;10.60;100.00;98540.19;10497464;28;20174;-74
2021/05/12 21:08:51;;;;;;;3.70;3.40;;;;;;;10.52;100.00;98538.72;10498973;28;20238;-76
2021/05/12 21:14:10;;;;;;;4.33;3.93;;;;;;;10.43;100.00;98538.44;10499074;28;20618;-77
2021/05/12 21:19:30;;;;;;;3.40;3.10;;;;;;;10.54;100.00;98542.59;10496646;28;20629;-75
2021/05/12 21:24:49;;;;;;;6.33;3.23;;;;;;;10.50;100.00;98538.34;10498880;28;20637;-75
2021/05/12 21:30:08;;;;;;;3.43;3.13;;;;;;;10.40;100.00;98536.47;10497927;28;20226;-75
2021/05/12 21:35:27;;;;;;;4.33;3.23;;;;;;;10.36;100.00;98536.53;10497100;28;20171;-75
2021/05/12 21:40:48;;;;;;;6.77;4.00;;;;;;;10.50;100.00;98532.84;10497475;28;20179;-75
2021/05/12 21:46:07;;;;;;;2.60;2.40;;;;;;;10.40;100.00;98528.25;10496412;28;20203;-75
2021/05/12 21:51:26;;;;;;;3.87;3.00;;;;;;;10.43;100.00;98521.94;10497772;28;20216;-74
2021/05/12 21:56:45;;;;;;;4.30;3.47;;;;;;;10.28;100.00;98520.53;10496611;28;20575;-75
2021/05/12 22:02:04;;;;;;;4.60;3.20;;;;;;;10.23;100.00;98520.22;10495360;28;20540;-75
2021/05/12 22:24:22;;;;;;;14.30;5.50;;;;;;;10.10;100.00;98505.41;10497337;28;20171;-75
2021/05/12 22:35:22;;;;;;;4.27;3.70;;;;;;;10.26;100.00;98500.91;10495220;28;20625;-75
2021/05/12 22:40:43;;;;;;;3.67;3.03;;;;;;;10.10;100.00;98497.16;10496919;28;20178;-75
2021/05/12 22:46:02;;;;;;;5.00;2.90;;;;;;;10.18;100.00;98502.19;10495217;28;20199;-75
2021/05/12 22:51:21;;;;;;;6.70;2.67;;;;;;;9.97;100.00;98507.13;10496885;28;20461;-75
2021/05/12 22:57:15;;;;;;;4.47;4.17;;;;;;;9.90;100.00;98499.72;10496526;28;20167;-75
2021/05/12 23:02:31;;;;;;;3.63;3.33;;;;;;;10.00;100.00;98487.09;10502048;28;20171;-75
2021/05/12 23:07:50;;;;;;;3.03;2.47;;;;;;;9.92;100.00;98482.84;10503812;28;20319;-75
2021/05/12 23:13:09;;;;;;;3.87;3.50;;;;;;;9.78;100.00;98483.75;10504017;28;20179;-75
2021/05/12 23:18:28;;;;;;;6.07;2.97;;;;;;;9.78;100.00;98480.22;10501654;28;20186;-75
2021/05/12 23:29:22;;;;;;;3.53;3.30;;;;;;;9.99;100.00;98474.56;10502670;28;20317;-74
2021/05/12 23:34:42;;;;;;;2.93;2.67;;;;;;;9.74;100.00;98471.25;10500939;28;20174;-74
2021/05/12 23:40:02;;;;;;;9.47;3.70;;;;;;;9.84;100.00;98473.13;10503249;28;20218;-75
2021/05/12 23:45:21;;;;;;;1.97;1.87;;;;;;;9.64;100.00;98472.94;10502031;28;20198;-75
2021/05/12 23:50:40;;;;;;;7.33;2.50;;;;;;;9.64;100.00;98467.44;10501289;28;20166;-75
2021/05/12 23:55:59;;;;;;;2.70;2.50;;;;;;;9.52;100.00;98458.94;10501460;28;20183;-75
